Time;durP1;ratioP1;P1;durP2;ratioP2;P2;SDS_P1;SDS_P2;PMS_P1;PMS_P2;Temp;Humidity;BMP_temperature;BMP_pressure;BME280_temperature;BME280_humidity;BME280_pressure;Samples;Min_cycle;Max_cycle;Signal;HPM_P1;HPM_P2
2023/12/19 00:00:05;;;;;;;18.77;9.73;;;;;;;9.91;62.76;101786.41;5019946;28;20045;-43
2023/12/19 00:02:30;;;;;;;19.75;9.65;;;;;;;9.88;63.05;101778.66;5018874;28;20079;-44
2023/12/19 00:04:56;;;;;;;21.80;10.98;;;;;;;10.01;63.01;101784.28;5022588;28;20436;-39
2023/12/19 00:07:21;;;;;;;14.13;6.28;;;;;;;9.79;63.07;101771.13;5020493;28;20049;-43
2023/12/19 00:09:46;;;;;;;19.75;9.75;;;;;;;9.83;62.99;101777.97;5019385;28;20069;-39
2023/12/19 00:12:12;;;;;;;19.42;9.85;;;;;;;9.84;62.83;101780.53;5023349;28;20029;-40
2023/12/19 00:14:38;;;;;;;18.10;10.18;;;;;;;9.65;63.22;101759.34;5019890;28;20474;-42
2023/12/19 00:17:04;;;;;;;23.48;10.82;;;;;;;10.09;62.68;101755.94;5018458;28;20036;-43
2023/12/19 00:19:29;;;;;;;14.13;7.75;;;;;;;9.86;62.95;101777.88;5023429;28;20037;-45
2023/12/19 00:21:56;;;;;;;20.55;9.70;;;;;;;9.99;62.69;101797.50;5022161;28;20041;-41
2023/12/19 00:24:21;;;;;;;20.92;9.75;;;;;;;9.89;62.91;101785.63;5021933;28;20137;-46
2023/12/19 00:26:46;;;;;;;23.35;10.82;;;;;;;9.95;62.86;101800.31;5020897;28;20029;-45
2023/12/19 00:29:12;;;;;;;16.88;9.45;;;;;;;9.90;62.71;101798.72;5020598;28;20076;-43
2023/12/19 00:31:37;;;;;;;22.65;9.13;;;;;;;10.06;62.64;101809.50;5020569;28;20090;-46
2023/12/19 00:34:02;;;;;;;18.90;8.68;;;;;;;10.00;62.93;101799.22;5023002;28;20041;-46
2023/12/19 00:36:28;;;;;;;22.40;9.60;;;;;;;9.91;63.41;101799.56;5022135;28;20528;-46
2023/12/19 00:38:53;;;;;;;19.70;9.27;;;;;;;10.01;62.90;101800.94;5020335;28;20116;-45
2023/12/19 00:41:19;;;;;;;24.08;9.95;;;;;;;10.01;63.21;101773.78;5021838;28;20381;-44
2023/12/19 00:43:45;;;;;;;21.38;9.10;;;;;;;9.89;63.67;101791.75;5021406;28;20061;-45
2023/12/19 00:46:11;;;;;;;24.83;9.75;;;;;;;10.05;63.39;101791.16;5022858;28;20494;-42
2023/12/19 00:48:36;;;;;;;13.05;6.22;;;;;;;9.84;63.42;101795.47;5020328;28;20041;-40
2023/12/19 00:51:07;;;;;;;21.65;9.88;;;;;;;9.84;63.52;101790.22;5020956;28;20033;-44
2023/12/19 00:53:33;;;;;;;18.88;9.40;;;;;;;9.89;63.39;101781.22;5023205;28;20439;-43
2023/12/19 00:55:58;;;;;;;18.88;9.95;;;;;;;9.86;63.40;101791.84;5027445;28;20033;-43
2023/12/19 00:58:23;;;;;;;18.83;9.68;;;;;;;9.66;63.67;101784.72;5028702;28;20029;-43
2023/12/19 01:00:49;;;;;;;18.48;9.07;;;;;;;9.84;63.31;101772.66;5027100;28;20421;-44
2023/12/19 01:03:14;;;;;;;18.58;9.13;;;;;;;9.83;63.11;101786.69;5027436;28;20025;-41
2023/12/19 01:05:40;;;;;;;18.40;9.63;;;;;;;9.73;63.26;101791.47;5022215;28;20029;-43
2023/12/19 01:08:05;;;;;;;21.15;9.63;;;;;;;9.65;63.58;101801.41;5027394;28;20037;-43
2023/12/19 01:10:31;;;;;;;24.08;9.68;;;;;;;9.83;63.56;101801.63;5025990;28;21256;-47
2023/12/19 01:12:56;;;;;;;16.95;9.18;;;;;;;9.88;63.42;101799.69;5018295;28;20026;-43
2023/12/19 01:15:22;;;;;;;17.75;9.90;;;;;;;9.75;63.46;101805.44;5025492;28;20037;-40
2023/12/19 01:17:47;;;;;;;22.77;10.02;;;;;;;9.99;63.36;101797.50;5024157;28;20049;-37
2023/12/19 01:20:12;;;;;;;18.58;9.55;;;;;;;9.99;63.11;101796.63;5023343;28;20476;-41
2023/12/19 01:22:38;;;;;;;21.00;9.73;;;;;;;9.93;63.38;101784.59;5021120;28;20033;-43
2023/12/19 01:25:04;;;;;;;21.35;9.18;;;;;;;9.77;63.44;101795.69;5024584;28;20037;-45
2023/12/19 01:27:29;;;;;;;20.33;9.55;;;;;;;9.64;63.75;101804.94;5024868;28;20033;-46
2023/12/19 01:29:54;;;;;;;24.20;9.38;;;;;;;9.79;63.43;101795.66;5026320;28;20502;-42
2023/12/19 01:32:20;;;;;;;18.95;9.48;;;;;;;9.86;63.44;101794.47;5024121;28;20034;-44
2023/12/19 01:34:46;;;;;;;19.25;9.48;;;;;;;9.71;63.73;101797.69;5025817;28;20029;-43
2023/12/19 01:37:12;;;;;;;21.75;10.70;;;;;;;9.89;63.66;101791.75;5021654;28;20036;-45
2023/12/19 01:39:37;;;;;;;19.30;9.35;;;;;;;9.65;63.97;101779.53;5021469;28;20029;-44
2023/12/19 01:42:03;;;;;;;21.98;10.25;;;;;;;9.73;63.42;101783.59;5026752;28;20025;-43
2023/12/19 01:44:28;;;;;;;18.60;9.45;;;;;;;9.69;63.42;101774.09;5027289;28;20053;-41
2023/12/19 01:46:53;;;;;;;19.88;8.70;;;;;;;9.81;63.29;101778.03;5027121;28;20496;-45
2023/12/19 01:49:19;;;;;;;18.70;8.75;;;;;;;9.85;63.33;101765.63;5025335;28;20108;-46
2023/12/19 01:51:45;;;;;;;18.45;9.65;;;;;;;9.76;63.62;101770.31;5024115;28;20033;-43
2023/12/19 01:54:12;;;;;;;21.98;9.45;;;;;;;9.78;63.43;101778.16;5025977;28;20411;-45
2023/12/19 01:56:38;;;;;;;18.92;9.98;;;;;;;9.74;63.56;101780.06;5023474;28;20048;-43
2023/12/19 01:59:06;;;;;;;17.33;10.07;;;;;;;9.72;63.42;101776.63;5028555;28;20025;-46
2023/12/19 02:01:34;;;;;;;18.45;9.35;;;;;;;9.90;63.15;101776.84;5025791;28;20064;-46
2023/12/19 02:03:59;;;;;;;22.45;9.93;;;;;;;9.80;63.56;101767.56;5021422;28;20051;-44
2023/12/19 02:06:25;;;;;;;18.13;8.75;;;;;;;9.93;63.21;101760.94;5022921;28;20651;-43
2023/12/19 02:08:51;;;;;;;11.60;5.93;;;;;;;9.94;63.17;101754.75;5021643;28;20117;-46
2023/12/19 02:11:17;;;;;;;17.65;9.60;;;;;;;9.82;63.47;101736.81;5022881;28;20029;-45
2023/12/19 02:13:43;;;;;;;21.48;10.70;;;;;;;9.84;63.55;101745.50;5023024;28;20041;-47
2023/12/19 02:16:09;;;;;;;11.00;6.00;;;;;;;10.01;62.91;101758.88;5021243;28;20075;-47
2023/12/19 02:18:34;;;;;;;20.17;8.98;;;;;;;9.74;63.34;101750.25;5024134;28;20115;-46
2023/12/19 02:21:00;;;;;;;19.15;9.18;;;;;;;9.85;63.01;101741.97;5020686;28;20059;-46
2023/12/19 02:23:25;;;;;;;20.50;9.50;;;;;;;9.76;63.87;101727.41;5023081;28;20482;-46
2023/12/19 02:25:51;;;;;;;20.67;9.30;;;;;;;9.70;63.93;101712.75;5023579;28;21186;-46
2023/12/19 02:28:17;;;;;;;21.02;9.02;;;;;;;9.80;63.44;101708.00;5022142;28;20136;-46
2023/12/19 02:30:43;;;;;;;16.65;8.02;;;;;;;9.71;63.98;101708.31;5023374;28;20029;-45
2023/12/19 02:33:09;;;;;;;18.17;9.30;;;;;;;9.60;63.89;101700.88;5007371;28;20025;-44
2023/12/19 02:35:34;;;;;;;20.67;9.93;;;;;;;9.65;63.64;101706.78;5023766;28;20066;-45
2023/12/19 02:37:59;;;;;;;17.27;9.07;;;;;;;9.87;63.45;101708.59;5022867;28;20115;-43
2023/12/19 02:40:25;;;;;;;20.13;9.88;;;;;;;9.61;63.43;101724.47;5021529;28;20452;-44
2023/12/19 02:42:51;;;;;;;18.27;9.50;;;;;;;10.01;62.90;101716.81;5021985;28;20396;-44
2023/12/19 02:45:16;;;;;;;20.75;9.45;;;;;;;9.85;63.02;101721.78;5023545;28;21032;-45
2023/12/19 02:47:42;;;;;;;20.52;9.15;;;;;;;10.04;62.88;101721.94;5015239;28;20041;-45
2023/12/19 02:50:08;;;;;;;18.67;9.27;;;;;;;9.85;63.11;101720.94;5017093;28;20455;-42
2023/12/19 02:52:33;;;;;;;18.95;9.82;;;;;;;9.84;63.36;101724.50;5023392;28;20476;-43
2023/12/19 02:54:58;;;;;;;18.17;9.23;;;;;;;9.75;63.27;101716.06;5020829;28;20030;-46
2023/12/19 02:57:24;;;;;;;19.50;8.93;;;;;;;9.83;63.45;101717.50;5018476;28;22307;-44
2023/12/19 02:59:49;;;;;;;18.45;9.20;;;;;;;9.97;62.70;101730.97;5017608;28;20041;-42
2023/12/19 03:02:15;;;;;;;23.55;9.95;;;;;;;9.90;63.56;101729.53;5022299;28;20396;-45
2023/12/19 03:04:41;;;;;;;19.55;8.55;;;;;;;9.71;63.02;101724.09;5019671;28;20068;-42
2023/12/19 03:07:08;;;;;;;19.13;8.13;;;;;;;9.91;63.35;101715.44;5021859;28;20029;-43
2023/12/19 03:09:34;;;;;;;21.05;9.35;;;;;;;10.10;63.08;101709.44;5019838;28;20127;-41
2023/12/19 03:11:59;;;;;;;19.08;9.20;;;;;;;9.99;63.38;101705.47;5023536;28;20956;-43
2023/12/19 03:14:25;;;;;;;22.80;10.70;;;;;;;9.85;63.61;101698.13;5021331;28;20029;-44
2023/12/19 03:16:50;;;;;;;20.75;9.57;;;;;;;9.76;63.97;101698.50;5007409;28;20033;-44
2023/12/19 03:19:16;;;;;;;21.55;11.00;;;;;;;10.02;63.70;101712.38;5022434;28;20526;-42
2023/12/19 03:21:41;;;;;;;18.98;10.80;;;;;;;10.09;63.59;101705.09;5021148;28;20045;-45
2023/12/19 03:24:06;;;;;;;19.70;9.63;;;;;;;10.04;63.59;101698.28;5018583;28;20438;-45
2023/12/19 03:26:32;;;;;;;21.98;10.00;;;;;;;9.92;63.59;101685.59;5021181;28;20052;-41
2023/12/19 03:28:57;;;;;;;20.15;10.07;;;;;;;10.11;63.29;101685.72;5018537;28;20045;-41
2023/12/19 03:31:22;;;;;;;21.77;14.18;;;;;;;9.99;63.62;101684.44;5020004;28;20037;-41
2023/12/19 03:33:48;;;;;;;23.25;9.88;;;;;;;10.15;63.27;101686.47;5020443;28;20482;-41
2023/12/19 03:36:13;;;;;;;21.08;10.63;;;;;;;10.07;63.28;101674.47;5015200;28;20060;-44
2023/12/19 03:38:38;;;;;;;21.15;9.65;;;;;;;9.91;63.55;101670.75;5021145;28;20037;-43
2023/12/19 03:41:05;;;;;;;21.98;10.30;;;;;;;10.10;63.62;101673.50;5018803;28;20107;-42
2023/12/19 03:43:30;;;;;;;20.10;9.25;;;;;;;10.16;63.41;101682.91;5024268;28;20033;-44
2023/12/19 03:46:01;;;;;;;22.33;10.48;;;;;;;10.29;63.44;101684.13;5023770;28;20061;-45
2023/12/19 03:48:26;;;;;;;20.92;10.35;;;;;;;10.34;63.03;101666.38;5019395;28;20483;-43
2023/12/19 03:50:52;;;;;;;23.88;10.52;;;;;;;10.17;63.19;101663.59;5019068;28;20151;-43
2023/12/19 03:53:17;;;;;;;22.98;11.50;;;;;;;10.33;63.21;101667.28;5016921;28;20479;-42
2023/12/19 03:55:43;;;;;;;21.67;10.57;;;;;;;10.29;63.25;101689.38;5016179;28;20044;-44
2023/12/19 03:58:08;;;;;;;19.85;10.38;;;;;;;10.28;63.30;101682.41;5022139;28;20061;-43
2023/12/19 04:00:33;;;;;;;20.90;9.40;;;;;;;10.22;63.53;101687.91;5021121;28;20034;-44
2023/12/19 04:02:59;;;;;;;23.48;11.18;;;;;;;10.11;64.15;101679.59;5018786;28;20361;-43
2023/12/19 04:05:24;;;;;;;25.67;10.75;;;;;;;10.11;64.21;101677.84;5018575;28;20131;-44
2023/12/19 04:07:49;;;;;;;18.52;9.25;;;;;;;10.10;64.43;101667.38;5020610;28;20030;-43
2023/12/19 04:10:15;;;;;;;23.23;10.30;;;;;;;10.13;64.43;101678.63;5020249;28;20029;-43
2023/12/19 04:12:40;;;;;;;20.73;11.00;;;;;;;10.04;64.29;101673.72;5016258;28;20063;-46
2023/12/19 04:15:08;;;;;;;23.05;11.15;;;;;;;10.14;64.34;101674.22;5022841;28;20034;-41
2023/12/19 04:17:33;;;;;;;18.70;9.50;;;;;;;10.25;63.83;101656.22;5021833;28;20041;-42
2023/12/19 04:19:59;;;;;;;21.88;11.25;;;;;;;10.13;63.91;101643.59;5020955;28;20037;-45
2023/12/19 04:22:25;;;;;;;20.95;10.65;;;;;;;10.12;64.19;101655.00;5020482;28;20030;-40
2023/12/19 04:24:50;;;;;;;22.10;11.20;;;;;;;10.25;63.93;101677.25;5024277;28;20017;-41
2023/12/19 04:27:15;;;;;;;19.55;9.35;;;;;;;10.01;64.43;101679.13;5024556;28;20528;-40
2023/12/19 04:29:45;;;;;;;21.25;10.68;;;;;;;10.41;63.87;101668.75;5025895;28;20064;-44
2023/12/19 04:32:12;;;;;;;21.88;10.13;;;;;;;10.30;63.64;101671.81;5022771;28;20061;-42
2023/12/19 04:34:37;;;;;;;26.15;11.85;;;;;;;10.30;63.89;101664.78;5026071;28;20029;-44
2023/12/19 04:37:03;;;;;;;20.08;10.23;;;;;;;10.41;63.71;101672.25;5029557;28;22566;-42
2023/12/19 04:39:28;;;;;;;20.08;9.90;;;;;;;10.36;63.46;101659.25;5024995;28;20032;-42
2023/12/19 04:41:53;;;;;;;21.50;10.05;;;;;;;10.37;63.69;101650.44;5027574;28;20095;-45
2023/12/19 04:44:19;;;;;;;22.27;10.43;;;;;;;10.22;63.97;101657.22;5029134;28;20036;-40
2023/12/19 04:46:44;;;;;;;23.27;10.20;;;;;;;10.23;64.39;101652.78;5027714;28;20124;-43
2023/12/19 04:49:09;;;;;;;18.95;9.77;;;;;;;10.46;63.27;101659.75;5026650;28;20039;-43
2023/12/19 04:51:35;;;;;;;20.27;10.40;;;;;;;10.38;63.60;101651.34;5020463;28;20064;-42
2023/12/19 04:54:03;;;;;;;20.88;10.27;;;;;;;10.29;63.87;101662.19;5025173;28;20034;-45
2023/12/19 04:56:28;;;;;;;19.73;10.30;;;;;;;10.36;64.09;101648.72;5030233;28;20491;-44
2023/12/19 04:58:53;;;;;;;23.02;9.95;;;;;;;10.23;64.10;101644.91;5029483;28;20041;-43
2023/12/19 05:01:19;;;;;;;22.70;10.32;;;;;;;10.40;63.75;101640.72;5021295;28;20504;-45
2023/12/19 05:03:44;;;;;;;26.42;11.75;;;;;;;10.35;63.75;101648.78;5024878;28;20029;-45
2023/12/19 05:06:16;;;;;;;25.58;12.18;;;;;;;10.37;63.62;101645.16;5025594;28;20060;-46
2023/12/19 05:08:42;;;;;;;;;;;;;;;10.49;63.81;101643.00;5024472;28;20041;-46
2023/12/19 05:11:07;;;;;;;12.17;5.97;;;;;;;10.29;64.07;101652.53;5024624;28;19921;-44
2023/12/19 05:13:32;;;;;;;25.35;11.20;;;;;;;10.32;64.39;101646.28;5019128;28;20288;-40
2023/12/19 05:15:58;;;;;;;22.05;11.13;;;;;;;10.36;64.04;101656.59;5027202;28;20033;-42
2023/12/19 05:18:23;;;;;;;22.15;11.85;;;;;;;10.40;64.07;101638.09;5028248;28;20037;-42
2023/12/19 05:20:49;;;;;;;23.73;10.07;;;;;;;10.28;64.42;101637.69;5027884;28;20125;-42
2023/12/19 05:23:14;;;;;;;25.20;10.98;;;;;;;10.21;64.70;101617.81;5028712;28;20033;-40
2023/12/19 05:25:40;;;;;;;13.45;7.50;;;;;;;10.09;64.91;101607.81;5027739;28;20037;-47
2023/12/19 05:28:06;;;;;;;28.98;12.20;;;;;;;10.13;64.66;101605.00;5028122;28;20060;-41
2023/12/19 05:30:31;;;;;;;21.63;10.02;;;;;;;10.20;64.19;101605.59;5023403;28;20121;-43
2023/12/19 05:32:57;;;;;;;28.30;10.80;;;;;;;10.46;63.72;101606.28;5029497;28;20415;-44
2023/12/19 05:35:23;;;;;;;25.80;12.00;;;;;;;10.51;63.76;101612.22;5027239;28;20041;-41
2023/12/19 05:37:49;;;;;;;23.92;11.38;;;;;;;10.52;63.52;101608.63;5020551;28;20041;-41
2023/12/19 05:40:14;;;;;;;23.58;10.60;;;;;;;10.45;63.94;101602.78;5011454;28;20041;-41
2023/12/19 05:42:39;;;;;;;20.63;10.68;;;;;;;10.52;63.94;101590.19;5024964;28;20033;-47
2023/12/19 05:45:07;;;;;;;24.67;11.80;;;;;;;10.21;64.57;101573.09;5025329;28;20044;-44
2023/12/19 05:47:32;;;;;;;20.50;10.43;;;;;;;10.26;64.85;101581.66;5019717;28;20033;-45
2023/12/19 05:49:58;;;;;;;26.08;12.00;;;;;;;10.30;64.73;101587.63;5021590;28;20047;-45
2023/12/19 05:52:23;;;;;;;23.17;11.63;;;;;;;10.05;65.12;101580.78;5025485;28;20064;-45
2023/12/19 05:54:48;;;;;;;20.80;11.27;;;;;;;10.18;64.97;101560.09;5024353;28;20392;-45
2023/12/19 05:57:14;;;;;;;24.13;10.73;;;;;;;10.12;65.10;101586.63;5019515;28;20389;-45
2023/12/19 05:59:39;;;;;;;25.25;11.98;;;;;;;10.21;64.55;101578.34;5026976;28;20204;-44
2023/12/19 06:02:04;;;;;;;24.33;10.55;;;;;;;10.26;64.60;101602.69;5019812;28;20037;-45
2023/12/19 06:04:30;;;;;;;21.27;10.43;;;;;;;10.25;64.18;101611.50;5025530;28;20043;-47
2023/12/19 06:06:55;;;;;;;21.58;10.52;;;;;;;9.98;64.72;101609.13;5026042;28;20124;-43
2023/12/19 06:09:21;;;;;;;24.30;12.75;;;;;;;10.05;64.61;101592.19;5022816;28;20064;-44
2023/12/19 06:11:46;;;;;;;25.77;13.30;;;;;;;10.03;64.63;101591.38;5032212;28;20041;-43
2023/12/19 06:14:11;;;;;;;24.88;11.50;;;;;;;9.98;65.27;101590.72;5024201;28;20029;-44
2023/12/19 06:16:37;;;;;;;23.52;11.45;;;;;;;10.27;64.43;101585.16;5011241;28;20022;-46
2023/12/19 06:19:04;;;;;;;24.70;10.95;;;;;;;10.12;64.26;101592.78;5025746;28;20049;-44
2023/12/19 06:21:29;;;;;;;24.20;12.68;;;;;;;10.16;64.53;101586.44;5026536;28;20128;-44
2023/12/19 06:23:54;;;;;;;23.90;11.68;;;;;;;10.13;64.66;101583.97;5017552;28;20469;-45
2023/12/19 06:26:20;;;;;;;24.17;11.32;;;;;;;10.22;64.57;101585.31;5026506;28;20088;-44
2023/12/19 06:28:45;;;;;;;22.33;11.60;;;;;;;10.20;64.82;101584.56;5025828;28;20045;-46
2023/12/19 06:31:11;;;;;;;25.35;11.00;;;;;;;10.20;64.56;101587.19;5022039;28;20033;-45
2023/12/19 06:33:36;;;;;;;21.17;11.88;;;;;;;10.12;64.71;101581.38;5028971;28;20052;-46
2023/12/19 06:36:02;;;;;;;20.60;10.45;;;;;;;10.22;64.84;101593.22;5013748;28;20057;-44
2023/12/19 06:38:28;;;;;;;23.80;12.07;;;;;;;10.40;64.37;101596.00;5020708;28;20041;-45
2023/12/19 06:40:54;;;;;;;24.95;10.77;;;;;;;10.33;64.61;101588.38;5026758;28;20041;-40
2023/12/19 06:43:23;;;;;;;22.42;10.95;;;;;;;10.37;64.41;101591.72;5026570;28;20033;-44
2023/12/19 06:45:49;;;;;;;23.33;10.73;;;;;;;10.30;64.67;101585.88;5027072;28;20077;-45
2023/12/19 06:48:14;;;;;;;21.45;10.45;;;;;;;10.22;64.85;101573.03;5031110;28;20053;-44
2023/12/19 06:50:40;;;;;;;23.08;12.40;;;;;;;10.07;65.21;101569.28;5020897;28;20053;-47
2023/12/19 06:53:05;;;;;;;23.67;11.25;;;;;;;10.19;64.61;101567.91;5017692;28;20030;-45
2023/12/19 06:55:31;;;;;;;22.13;10.95;;;;;;;10.35;64.44;101562.84;5026904;28;20029;-45
2023/12/19 06:57:57;;;;;;;24.00;9.98;;;;;;;10.41;64.51;101566.16;5027359;28;20044;-44
2023/12/19 07:00:22;;;;;;;20.45;9.43;;;;;;;10.06;64.66;101574.59;5028161;28;20021;-43
2023/12/19 07:02:48;;;;;;;22.70;12.35;;;;;;;10.20;64.78;101569.63;5022253;28;20129;-42
2023/12/19 07:05:13;;;;;;;21.98;10.15;;;;;;;10.23;64.65;101571.25;5022615;28;20128;-44
2023/12/19 07:07:39;;;;;;;27.38;12.15;;;;;;;10.34;64.44;101561.13;5026111;28;20128;-45
2023/12/19 07:10:04;;;;;;;21.83;10.35;;;;;;;10.48;64.11;101581.59;5018944;28;20044;-43
2023/12/19 07:12:30;;;;;;;25.02;12.38;;;;;;;10.59;63.84;101591.66;5025831;28;20061;-42
2023/12/19 07:14:55;;;;;;;10.73;5.70;;;;;;;10.41;64.04;101581.94;5023258;28;20041;-47
2023/12/19 07:17:22;;;;;;;20.73;9.90;;;;;;;10.54;63.74;101577.84;5026799;28;20048;-42
2023/12/19 07:19:47;;;;;;;22.10;10.82;;;;;;;10.42;63.85;101596.81;5025069;28;20060;-42
2023/12/19 07:22:13;;;;;;;20.52;9.70;;;;;;;10.55;63.69;101590.06;5023632;28;20841;-46
2023/12/19 07:24:39;;;;;;;24.63;10.50;;;;;;;10.54;63.85;101584.91;5024947;28;20030;-44
2023/12/19 07:27:04;;;;;;;14.00;6.82;;;;;;;10.47;64.16;101586.94;5021888;28;20481;-45
2023/12/19 07:29:30;;;;;;;18.38;8.70;;;;;;;10.39;64.03;101587.28;5029059;28;20037;-46
2023/12/19 07:31:58;;;;;;;22.40;10.30;;;;;;;10.56;63.96;101576.00;5015178;28;20084;-42
2023/12/19 07:34:23;;;;;;;11.18;6.57;;;;;;;10.05;65.00;101568.50;5022615;28;20135;-44
2023/12/19 07:36:49;;;;;;;18.23;9.48;;;;;;;10.24;64.95;101565.06;5014173;28;20108;-45
2023/12/19 07:39:14;;;;;;;19.77;10.55;;;;;;;10.09;65.29;101566.59;5019302;28;20029;-46
2023/12/19 07:41:40;;;;;;;22.13;9.55;;;;;;;10.22;65.07;101559.00;5009005;28;20400;-45
2023/12/19 07:44:09;;;;;;;25.92;9.18;;;;;;;10.27;64.84;101558.84;5021795;28;20395;-41
2023/12/19 07:46:43;;;;;;;25.95;11.38;;;;;;;10.29;64.68;101571.00;5025917;28;20082;-44
2023/12/19 07:49:10;;;;;;;22.38;10.73;;;;;;;10.47;64.43;101576.41;5020636;28;20025;-46
2023/12/19 07:51:36;;;;;;;19.40;9.88;;;;;;;10.14;65.14;101577.75;5019138;28;20040;-44
2023/12/19 07:54:02;;;;;;;21.63;9.75;;;;;;;10.31;65.06;101574.41;5002593;28;20044;-44
2023/12/19 07:56:27;;;;;;;17.90;8.73;;;;;;;10.27;65.12;101572.00;5023830;28;20033;-45
2023/12/19 07:58:53;;;;;;;23.88;11.75;;;;;;;10.28;64.94;101571.91;5017219;28;20029;-46
2023/12/19 08:01:18;;;;;;;21.65;10.77;;;;;;;10.38;64.61;101561.88;5035286;28;20463;-44
2023/12/19 08:03:44;;;;;;;21.60;10.07;;;;;;;10.70;64.08;101553.47;5023257;28;20032;-45
2023/12/19 08:06:10;;;;;;;20.33;9.40;;;;;;;10.29;64.50;101557.84;5018038;28;20173;-46
2023/12/19 08:08:36;;;;;;;19.35;11.05;;;;;;;10.48;64.35;101554.44;5022712;28;20040;-43
2023/12/19 08:11:01;;;;;;;17.63;9.60;;;;;;;10.37;64.42;101545.19;5020730;28;20034;-47
2023/12/19 08:13:27;;;;;;;19.00;9.10;;;;;;;10.41;64.36;101534.56;5025181;28;20048;-47
2023/12/19 08:15:52;;;;;;;22.83;10.15;;;;;;;10.20;64.74;101522.28;5014543;28;20040;-45
2023/12/19 08:18:19;;;;;;;17.88;8.57;;;;;;;10.09;64.62;101527.16;5023012;28;20049;-45
2023/12/19 08:20:44;;;;;;;16.52;8.07;;;;;;;10.43;64.00;101506.44;5024272;28;20424;-41
2023/12/19 08:23:10;;;;;;;18.80;9.55;;;;;;;10.31;64.23;101515.69;5021990;28;20040;-44
2023/12/19 08:25:37;;;;;;;22.50;8.93;;;;;;;10.23;64.47;101505.50;5023542;28;20026;-42
2023/12/19 08:28:03;;;;;;;16.27;7.80;;;;;;;10.19;64.91;101510.03;5022907;28;20033;-42
2023/12/19 08:30:30;;;;;;;16.33;8.27;;;;;;;10.28;64.41;101500.06;5022865;28;20032;-47
2023/12/19 08:32:55;;;;;;;16.25;8.48;;;;;;;10.25;64.72;101506.28;5012295;28;20034;-47
2023/12/19 08:35:21;;;;;;;19.90;8.95;;;;;;;10.45;64.25;101504.59;5019980;28;20148;-46
2023/12/19 08:37:48;;;;;;;14.07;8.68;;;;;;;10.33;64.60;101508.56;5023311;28;20029;-45
2023/12/19 08:40:13;;;;;;;16.60;8.38;;;;;;;10.37;63.90;101491.75;5024973;28;20072;-44
2023/12/19 08:42:40;;;;;;;18.17;8.50;;;;;;;10.40;64.36;101488.13;5022504;28;20048;-45
2023/12/19 08:45:06;;;;;;;15.35;8.80;;;;;;;10.47;64.05;101492.22;5024826;28;20064;-46
2023/12/19 08:47:31;;;;;;;26.67;8.82;;;;;;;10.28;64.62;101485.09;5018214;28;20034;-45
2023/12/19 08:49:59;;;;;;;11.77;5.65;;;;;;;10.35;64.39;101483.94;5022910;28;20795;-41
2023/12/19 08:52:26;;;;;;;17.73;9.18;;;;;;;10.44;64.23;101480.03;5012229;28;20463;-42
2023/12/19 08:54:54;;;;;;;15.15;8.48;;;;;;;10.31;64.98;101477.09;5017246;28;20079;-47
2023/12/19 08:57:19;;;;;;;14.45;7.95;;;;;;;10.33;64.92;101470.00;5014505;28;20029;-46
2023/12/19 08:59:45;;;;;;;14.73;7.88;;;;;;;10.10;65.71;101478.03;5013779;28;20037;-48
2023/12/19 09:02:10;;;;;;;16.38;7.57;;;;;;;10.18;65.30;101466.25;5014173;28;20041;-44
2023/12/19 09:04:36;;;;;;;14.82;8.40;;;;;;;10.35;65.04;101468.16;5017031;28;20040;-46
2023/12/19 09:07:01;;;;;;;17.25;7.97;;;;;;;10.30;65.24;101464.84;5015676;28;20033;-47
2023/12/19 09:09:27;;;;;;;13.90;8.02;;;;;;;10.32;65.54;101463.00;5019494;28;20108;-46
2023/12/19 09:11:54;;;;;;;18.27;7.68;;;;;;;10.35;65.16;101472.53;5023783;28;20065;-45
2023/12/19 09:14:20;;;;;;;17.63;8.70;;;;;;;10.41;65.47;101463.53;5012893;28;20036;-46
2023/12/19 09:16:45;;;;;;;14.20;7.20;;;;;;;10.48;65.48;101464.97;5021308;28;20443;-46
2023/12/19 09:19:14;;;;;;;11.90;6.80;;;;;;;10.36;65.88;101453.19;5019637;28;20029;-46
2023/12/19 09:21:39;;;;;;;16.73;8.18;;;;;;;10.25;66.50;101453.69;5019286;28;20040;-45
2023/12/19 09:24:05;;;;;;;9.68;5.93;;;;;;;10.20;67.47;101447.78;5022018;28;20041;-46
2023/12/19 09:26:32;;;;;;;11.18;6.05;;;;;;;10.19;67.45;101459.22;5030155;28;20029;-46
2023/12/19 09:28:58;;;;;;;11.55;7.50;;;;;;;10.13;68.19;101459.50;5026258;28;20041;-46
2023/12/19 09:31:23;;;;;;;17.25;7.95;;;;;;;10.07;68.63;101453.56;5020664;28;20472;-46
2023/12/19 09:33:52;;;;;;;13.48;7.93;;;;;;;10.16;68.29;101444.41;5017653;28;20057;-43
2023/12/19 09:36:21;;;;;;;16.27;8.15;;;;;;;10.22;68.26;101440.66;5024213;28;20060;-41
2023/12/19 09:38:47;;;;;;;15.52;6.60;;;;;;;10.21;68.33;101434.56;5023171;28;20380;-41
2023/12/19 09:41:13;;;;;;;12.85;7.43;;;;;;;9.92;69.37;101451.63;5026869;28;20044;-45
2023/12/19 09:43:39;;;;;;;14.85;8.50;;;;;;;10.09;68.62;101434.25;5021075;28;20033;-43
2023/12/19 09:46:05;;;;;;;13.57;7.28;;;;;;;9.99;69.07;101434.66;5014845;28;20037;-45
2023/12/19 09:48:33;;;;;;;12.02;6.65;;;;;;;10.14;69.10;101437.53;5025337;28;20029;-47
2023/12/19 09:51:03;;;;;;;13.95;7.28;;;;;;;10.23;68.85;101434.47;5025487;28;20498;-47
2023/12/19 09:53:34;;;;;;;12.77;6.15;;;;;;;10.27;68.67;101424.69;5024346;28;20079;-44
2023/12/19 09:56:00;;;;;;;15.57;6.90;;;;;;;10.21;68.77;101415.28;5020313;28;20701;-48
2023/12/19 09:58:26;;;;;;;14.45;5.60;;;;;;;10.22;69.07;101403.84;5020598;28;20025;-46
2023/12/19 10:00:52;;;;;;;13.25;6.28;;;;;;;10.14;69.01;101398.94;5023675;28;20114;-47
2023/12/19 10:03:18;;;;;;;11.40;5.82;;;;;;;10.20;69.00;101384.66;5015785;28;20649;-45
2023/12/19 10:05:44;;;;;;;10.75;6.25;;;;;;;10.15;69.26;101370.88;5019895;28;20037;-47
2023/12/19 10:08:10;;;;;;;9.65;5.10;;;;;;;10.19;69.25;101365.38;5015263;28;20771;-47
2023/12/19 10:10:54;;;;;;;9.25;5.18;;;;;;;10.17;69.15;101348.81;5017900;28;20088;-46
2023/12/19 10:13:33;;;;;;;8.63;4.38;;;;;;;10.13;69.40;101356.94;5019302;28;20053;-47
2023/12/19 10:16:06;;;;;;;10.77;5.30;;;;;;;10.07;69.52;101337.03;5025084;28;20077;-46
2023/12/19 10:18:32;;;;;;;13.10;6.63;;;;;;;9.97;69.38;101341.84;5030404;28;20033;-47
2023/12/19 10:21:13;;;;;;;7.70;4.72;;;;;;;10.21;69.06;101344.25;5018699;28;20045;-47
2023/12/19 10:23:39;;;;;;;7.25;3.63;;;;;;;10.00;69.71;101354.00;5019545;28;20034;-46
2023/12/19 10:26:06;;;;;;;11.50;4.18;;;;;;;9.95;69.57;101364.72;5016911;28;20492;-46
2023/12/19 10:28:35;;;;;;;8.52;3.83;;;;;;;10.12;69.38;101347.34;5026547;28;20040;-45
2023/12/19 10:31:06;;;;;;;8.73;4.22;;;;;;;10.04;70.38;101342.44;5025565;28;20036;-48
2023/12/19 10:33:45;;;;;;;10.13;4.80;;;;;;;10.22;69.33;101338.09;5025397;28;20516;-47
2023/12/19 10:36:28;;;;;;;8.20;4.43;;;;;;;10.09;69.54;101334.31;5015978;28;20082;-47
2023/12/19 10:38:54;;;;;;;;;;;;;;;10.10;69.33;101320.25;5019561;28;20116;-45
2023/12/19 10:41:30;;;;;;;5.97;3.10;;;;;;;10.21;69.23;101315.34;5025852;28;20031;-47
2023/12/19 10:43:57;;;;;;;7.20;3.65;;;;;;;10.17;69.43;101316.44;5024718;28;20499;-44
2023/12/19 10:46:26;;;;;;;6.28;3.33;;;;;;;10.22;69.24;101303.91;5023396;28;20032;-46
2023/12/19 10:48:54;;;;;;;6.47;3.53;;;;;;;10.10;69.42;101299.22;5026058;28;20041;-46
2023/12/19 10:51:42;;;;;;;6.18;3.55;;;;;;;10.43;68.90;101301.22;5024855;28;20030;-46
2023/12/19 10:54:09;;;;;;;5.00;3.05;;;;;;;10.17;69.31;101293.59;5014072;28;20033;-46
2023/12/19 10:56:45;;;;;;;5.20;3.03;;;;;;;10.28;68.78;101281.75;5026440;28;20558;-45
2023/12/19 10:59:20;;;;;;;6.95;3.35;;;;;;;10.19;69.35;101280.41;5027502;28;20033;-43
2023/12/19 11:01:47;;;;;;;4.82;2.50;;;;;;;10.42;68.49;101273.19;5024594;28;20054;-45
2023/12/19 11:04:21;;;;;;;6.25;3.65;;;;;;;10.50;68.42;101268.44;5026180;28;20091;-45
2023/12/19 11:06:53;;;;;;;5.22;2.63;;;;;;;10.30;68.88;101270.22;5029484;28;20025;-44
2023/12/19 11:09:24;;;;;;;5.32;2.95;;;;;;;10.36;69.01;101266.41;5012999;28;21006;-45
2023/12/19 11:11:51;;;;;;;7.68;3.60;;;;;;;10.45;68.84;101257.25;5020527;28;20033;-43